createdAt,value
2023-01-09T00:01:23.093Z,16.10
2023-01-09T00:03:51.167Z,14.63
2023-01-09T00:06:20.241Z,16.73
2023-01-09T00:08:48.033Z,16.47
2023-01-09T00:11:15.788Z,17.50
2023-01-09T00:13:43.580Z,17.27
2023-01-09T00:16:11.632Z,17.20
2023-01-09T00:18:39.387Z,19.87
2023-01-09T00:21:09.107Z,17.87
2023-01-09T00:23:38.574Z,18.60
2023-01-09T00:26:08.123Z,15.60
2023-01-09T00:28:36.535Z,18.50
2023-01-09T00:31:05.620Z,17.03
2023-01-09T00:33:35.686Z,17.57
2023-01-09T00:36:04.283Z,18.63
2023-01-09T00:38:32.103Z,16.27
2023-01-09T00:41:03.294Z,17.33
2023-01-09T00:43:34.993Z,17.73
2023-01-09T00:46:06.086Z,16.97
2023-01-09T00:48:35.860Z,18.50
2023-01-09T00:51:03.788Z,18.10
2023-01-09T00:53:33.958Z,18.17
2023-01-09T00:56:06.490Z,16.70
2023-01-09T00:58:35.600Z,17.10
2023-01-09T01:01:03.642Z,16.13
2023-01-09T01:03:31.449Z,17.93
2023-01-09T01:06:16.957Z,17.07
2023-01-09T01:08:46.171Z,17.77
2023-01-09T01:11:15.738Z,17.07
2023-01-09T01:13:43.856Z,16.77
2023-01-09T01:16:13.572Z,18.27
2023-01-09T01:18:41.901Z,17.37
2023-01-09T01:21:10.877Z,17.60
2023-01-09T01:23:39.267Z,17.40
2023-01-09T01:26:08.215Z,15.60
2023-01-09T01:28:37.251Z,15.60
2023-01-09T01:31:05.973Z,15.67
2023-01-09T01:33:35.103Z,17.47
2023-01-09T01:36:04.126Z,15.97
2023-01-09T01:38:32.318Z,15.07
2023-01-09T01:41:00.582Z,15.70
2023-01-09T01:43:28.283Z,17.07
2023-01-09T01:45:57.424Z,17.40
2023-01-09T01:48:29.939Z,18.67
2023-01-09T01:51:01.514Z,19.90
2023-01-09T01:53:34.262Z,20.30
2023-01-09T01:56:09.074Z,18.87
2023-01-09T01:58:43.075Z,19.17
2023-01-09T02:01:12.633Z,19.27
2023-01-09T02:03:42.227Z,18.77
2023-01-09T02:06:10.549Z,24.20
2023-01-09T02:08:38.715Z,21.20
2023-01-09T02:11:07.095Z,19.17
2023-01-09T02:13:38.706Z,21.20
2023-01-09T02:16:22.889Z,20.47
2023-01-09T02:18:54.060Z,20.30
2023-01-09T02:21:35.597Z,20.43
2023-01-09T02:24:11.318Z,17.30
2023-01-09T02:27:11.203Z,19.87
2023-01-09T02:30:14.876Z,20.40
2023-01-09T02:32:52.894Z,19.97
2023-01-09T02:35:32.921Z,19.23
2023-01-09T02:38:07.869Z,19.47
2023-01-09T02:40:41.139Z,19.60
2023-01-09T02:43:10.420Z,20.77
2023-01-09T02:45:38.165Z,19.83
2023-01-09T02:48:09.121Z,18.83
2023-01-09T02:50:42.458Z,21.27
2023-01-09T02:53:47.011Z,17.33
2023-01-09T02:56:29.627Z,19.33
2023-01-09T02:59:17.468Z,19.17
2023-01-09T03:01:55.860Z,19.10
2023-01-09T03:04:36.594Z,18.10
2023-01-09T03:07:11.308Z,18.93
2023-01-09T03:09:43.757Z,18.67
2023-01-09T03:12:18.248Z,21.33
2023-01-09T03:14:49.760Z,19.50
2023-01-09T03:17:23.606Z,18.07
2023-01-09T03:19:54.040Z,18.90
2023-01-09T03:22:21.838Z,17.90
2023-01-09T03:24:49.564Z,19.33
2023-01-09T03:27:17.415Z,19.33
2023-01-09T03:29:45.180Z,20.50
2023-01-09T03:32:13.962Z,16.80
2023-01-09T03:34:41.701Z,18.93
2023-01-09T03:37:10.763Z,17.60
2023-01-09T03:39:38.484Z,19.23
2023-01-09T03:42:06.500Z,18.83
2023-01-09T03:44:34.259Z,17.37
2023-01-09T03:47:02.041Z,18.37
2023-01-09T03:49:29.742Z,19.23
2023-01-09T03:51:57.464Z,18.07
2023-01-09T03:54:26.774Z,17.47
2023-01-09T03:56:54.631Z,17.57
2023-01-09T03:59:22.333Z,18.77
2023-01-09T04:01:50.224Z,19.17
2023-01-09T04:04:18.157Z,17.53
2023-01-09T04:06:45.890Z,17.07
2023-01-09T04:09:13.619Z,19.10
2023-01-09T04:11:42.669Z,15.40
2023-01-09T04:14:10.383Z,18.27
2023-01-09T04:16:38.162Z,16.57
2023-01-09T04:19:05.925Z,15.13
2023-01-09T04:21:33.648Z,15.20
2023-01-09T04:24:02.921Z,15.83
2023-01-09T04:26:30.668Z,17.20
2023-01-09T04:29:00.494Z,15.67
2023-01-09T04:31:28.361Z,16.20
2023-01-09T04:33:56.384Z,18.07
2023-01-09T04:36:24.128Z,17.60
2023-01-09T04:38:51.847Z,15.87
2023-01-09T04:41:33.601Z,16.10
2023-01-09T04:44:02.649Z,15.43
2023-01-09T04:46:30.390Z,15.73
2023-01-09T04:48:58.095Z,16.97
2023-01-09T04:51:25.876Z,17.53
2023-01-09T04:53:53.600Z,19.43
2023-01-09T04:56:21.339Z,17.87
2023-01-09T04:58:49.091Z,16.67
2023-01-09T05:01:18.274Z,18.53
2023-01-09T05:03:46.058Z,19.40
2023-01-09T05:06:13.841Z,18.53
2023-01-09T05:08:41.558Z,19.40
2023-01-09T05:11:09.296Z,19.43
2023-01-09T05:13:37.043Z,20.50
2023-01-09T05:16:04.823Z,21.23
2023-01-09T05:18:33.895Z,23.57
2023-01-09T05:21:01.673Z,19.60
2023-01-09T05:23:29.409Z,23.00
2023-01-09T05:25:57.170Z,22.07
2023-01-09T05:28:24.899Z,20.10
2023-01-09T05:30:52.631Z,23.43
2023-01-09T05:33:20.362Z,20.77
2023-01-09T05:35:49.516Z,21.87
2023-01-09T05:38:17.340Z,22.00
2023-01-09T05:40:45.081Z,21.00
2023-01-09T05:43:12.834Z,19.30
2023-01-09T05:45:40.661Z,24.47
2023-01-09T05:48:08.485Z,23.07
2023-01-09T05:50:36.304Z,23.87
2023-01-09T05:53:06.647Z,25.37
2023-01-09T05:55:34.434Z,22.60
2023-01-09T05:58:02.540Z,23.73
2023-01-09T06:00:30.570Z,23.67
2023-01-09T06:02:58.458Z,25.60
2023-01-09T06:05:26.403Z,23.93
2023-01-09T06:07:54.229Z,26.27
2023-01-09T06:10:23.379Z,23.10
2023-01-09T06:12:53.135Z,24.70
2023-01-09T06:15:21.456Z,24.17
2023-01-09T06:17:49.189Z,24.47
2023-01-09T06:20:17.090Z,21.63
2023-01-09T06:22:45.314Z,22.17
2023-01-09T06:25:13.388Z,24.37
2023-01-09T06:27:42.423Z,23.37
2023-01-09T06:30:11.388Z,25.03
2023-01-09T06:32:39.214Z,22.50
2023-01-09T06:35:07.285Z,23.80
2023-01-09T06:37:35.012Z,24.73
2023-01-09T06:40:02.750Z,22.90
2023-01-09T06:42:30.455Z,24.97
2023-01-09T06:44:59.534Z,23.57
2023-01-09T06:47:27.277Z,22.60
2023-01-09T06:49:54.990Z,22.67
2023-01-09T06:52:22.703Z,23.47
2023-01-09T06:54:50.494Z,23.63
2023-01-09T06:57:18.385Z,25.03
2023-01-09T06:59:46.136Z,26.23
2023-01-09T07:02:20.308Z,24.60
2023-01-09T07:04:48.058Z,25.10
2023-01-09T07:07:16.354Z,22.73
2023-01-09T07:09:44.123Z,20.80
2023-01-09T07:12:12.792Z,24.13
2023-01-09T07:14:40.560Z,24.70
2023-01-09T07:17:08.322Z,22.83
2023-01-09T07:19:37.387Z,21.57
2023-01-09T07:22:05.107Z,20.93
2023-01-09T07:24:32.859Z,21.00
2023-01-09T07:27:00.610Z,20.43
2023-01-09T07:29:28.370Z,20.77
2023-01-09T07:31:56.103Z,20.33
2023-01-09T07:34:23.872Z,21.13
2023-01-09T07:36:52.946Z,20.10
2023-01-09T07:39:20.732Z,18.00
2023-01-09T07:41:48.687Z,22.67
2023-01-09T07:44:16.831Z,22.53
2023-01-09T07:46:44.587Z,21.40
2023-01-09T07:49:12.313Z,21.90
2023-01-09T07:51:43.129Z,24.43
2023-01-09T07:54:13.525Z,22.70
2023-01-09T07:56:41.755Z,24.17
2023-01-09T07:59:09.888Z,21.37
2023-01-09T08:01:37.787Z,20.40
2023-01-09T08:04:05.662Z,22.83
2023-01-09T08:06:33.425Z,25.03
2023-01-09T08:09:01.204Z,21.87
2023-01-09T08:11:30.304Z,21.50
2023-01-09T08:13:58.059Z,20.03
2023-01-09T08:16:25.829Z,20.73
2023-01-09T08:18:53.599Z,19.67
2023-01-09T08:21:21.350Z,23.10
2023-01-09T08:23:49.078Z,23.07
2023-01-09T08:26:16.824Z,21.40
2023-01-09T08:28:45.902Z,23.03
2023-01-09T08:31:13.789Z,25.00
2023-01-09T08:33:41.584Z,21.70
2023-01-09T08:36:10.157Z,21.67
2023-01-09T08:38:37.954Z,19.83
2023-01-09T08:41:25.827Z,23.37
2023-01-09T08:44:12.542Z,24.03
2023-01-09T08:46:57.948Z,23.03
2023-01-09T08:49:25.731Z,23.83
2023-01-09T08:51:53.464Z,22.83
2023-01-09T08:54:21.212Z,24.17
2023-01-09T08:56:48.958Z,23.70
2023-01-09T08:59:18.045Z,26.63
2023-01-09T09:01:45.821Z,26.33
2023-01-09T09:04:13.576Z,23.03
2023-01-09T09:06:41.740Z,23.47
2023-01-09T09:09:09.561Z,24.90
2023-01-09T09:11:37.445Z,21.47
2023-01-09T09:14:25.711Z,23.13
2023-01-09T09:16:55.113Z,22.93
2023-01-09T09:19:23.222Z,21.40
2023-01-09T09:21:50.931Z,24.83
2023-01-09T09:24:18.959Z,21.77
2023-01-09T09:26:46.695Z,19.67
2023-01-09T09:29:14.607Z,23.03
2023-01-09T09:31:42.374Z,17.73
2023-01-09T09:34:12.934Z,19.33
2023-01-09T09:36:40.701Z,21.30
2023-01-09T09:39:09.287Z,18.50
2023-01-09T09:42:26.580Z,22.87
2023-01-09T09:45:07.090Z,17.67
2023-01-09T09:47:45.762Z,16.37
2023-01-09T09:50:29.742Z,17.70
2023-01-09T09:53:04.455Z,17.20
2023-01-09T09:55:34.848Z,16.33
2023-01-09T09:58:07.508Z,15.80
2023-01-09T10:00:35.568Z,15.60
2023-01-09T10:03:06.472Z,15.77
2023-01-09T10:05:38.190Z,16.63
2023-01-09T10:08:15.848Z,16.27
2023-01-09T10:10:51.420Z,16.77
2023-01-09T10:13:38.698Z,16.23
2023-01-09T10:16:17.281Z,14.50
2023-01-09T10:18:57.983Z,14.60
2023-01-09T10:21:32.042Z,15.80
2023-01-09T10:24:14.123Z,12.70
2023-01-09T10:26:47.660Z,14.10
2023-01-09T10:29:39.019Z,12.60
2023-01-09T10:32:21.506Z,11.67
2023-01-09T10:35:00.238Z,11.33
2023-01-09T10:37:31.701Z,9.80
2023-01-09T10:40:05.167Z,12.50
2023-01-09T10:42:38.495Z,10.53
2023-01-09T10:45:17.811Z,9.00
2023-01-09T10:47:47.108Z,9.30
2023-01-09T10:50:25.495Z,8.17
2023-01-09T10:52:56.913Z,9.47
2023-01-09T10:55:33.849Z,9.50
2023-01-09T10:58:03.937Z,10.23
2023-01-09T11:00:31.670Z,9.40
2023-01-09T11:02:59.484Z,9.63
2023-01-09T11:05:32.741Z,7.77
2023-01-09T11:08:07.594Z,7.37
2023-01-09T11:10:48.022Z,6.90
2023-01-09T11:13:19.759Z,7.70
2023-01-09T11:15:59.475Z,7.83
2023-01-09T11:18:28.153Z,8.60
2023-01-09T11:20:56.023Z,6.43
2023-01-09T11:23:31.193Z,6.20
2023-01-09T11:26:00.684Z,7.07
2023-01-09T11:28:29.128Z,6.77
2023-01-09T11:31:00.648Z,6.40
2023-01-09T11:33:30.721Z,8.23
2023-01-09T11:36:01.922Z,6.10
2023-01-09T11:38:32.565Z,5.53
2023-01-09T11:41:04.859Z,7.17
2023-01-09T11:43:37.604Z,5.70
2023-01-09T11:46:07.373Z,5.53
2023-01-09T11:48:41.073Z,5.47
2023-01-09T11:51:19.940Z,4.87
2023-01-09T11:54:18.802Z,5.67
2023-01-09T11:56:47.948Z,4.43
2023-01-09T11:59:19.185Z,5.27
2023-01-09T12:02:26.160Z,5.20
2023-01-09T12:04:57.154Z,6.23
2023-01-09T12:07:44.153Z,5.60
2023-01-09T12:10:31.277Z,5.07
2023-01-09T12:13:07.973Z,5.57
2023-01-09T12:15:46.360Z,3.77
2023-01-09T12:18:26.411Z,4.40
2023-01-09T12:21:25.444Z,4.57
2023-01-09T12:24:13.360Z,4.03
2023-01-09T12:26:50.368Z,2.87
2023-01-09T12:29:53.845Z,3.37
2023-01-09T12:32:36.777Z,2.67
2023-01-09T12:35:13.413Z,3.80
2023-01-09T12:38:05.377Z,2.30
2023-01-09T12:40:51.732Z,3.23
2023-01-09T12:43:28.798Z,4.57
2023-01-09T12:46:06.385Z,2.50
2023-01-09T12:48:52.336Z,2.27
2023-01-09T12:51:28.703Z,2.23
2023-01-09T12:54:02.241Z,3.87
2023-01-09T12:56:34.640Z,2.97
2023-01-09T12:59:18.757Z,4.47
2023-01-09T13:01:49.492Z,2.57
2023-01-09T13:04:24.328Z,4.27
2023-01-09T13:06:57.321Z,2.97
2023-01-09T13:09:28.445Z,2.83
2023-01-09T13:12:04.051Z,4.77
2023-01-09T13:14:48.281Z,1.60
2023-01-09T13:17:20.867Z,2.50
2023-01-09T13:19:48.943Z,5.30
2023-01-09T13:22:18.118Z,3.87
2023-01-09T13:25:08.775Z,2.67
2023-01-09T13:27:40.863Z,2.70
2023-01-09T13:30:25.561Z,3.80
2023-01-09T13:33:04.153Z,2.90
2023-01-09T13:35:31.960Z,4.13
2023-01-09T13:37:59.817Z,2.37
2023-01-09T13:40:30.348Z,3.70
2023-01-09T13:42:59.835Z,1.70
2023-01-09T13:45:31.191Z,2.83
2023-01-09T13:48:29.387Z,2.73
2023-01-09T13:51:37.318Z,3.40
2023-01-09T13:54:05.263Z,3.43
2023-01-09T13:56:33.015Z,3.23
2023-01-09T13:59:03.800Z,3.57
2023-01-09T14:01:47.546Z,3.47
2023-01-09T14:04:43.314Z,5.70
2023-01-09T14:07:22.259Z,2.63
2023-01-09T14:09:53.480Z,2.83
2023-01-09T14:12:22.736Z,2.43
2023-01-09T14:14:52.249Z,2.63
2023-01-09T14:17:27.469Z,3.73
2023-01-09T14:19:57.895Z,2.23
2023-01-09T14:22:27.779Z,6.20
2023-01-09T14:24:56.700Z,5.47
2023-01-09T14:28:03.046Z,4.37
2023-01-09T14:30:36.649Z,2.60
2023-01-09T14:33:25.719Z,4.07
2023-01-09T14:35:59.396Z,4.10
2023-01-09T14:38:31.759Z,2.63
2023-01-09T14:41:08.871Z,3.63
2023-01-09T14:43:47.478Z,5.93
2023-01-09T14:46:18.700Z,4.03
2023-01-09T14:49:04.855Z,3.73
2023-01-09T14:51:36.480Z,2.13
2023-01-09T14:54:15.541Z,4.33
2023-01-09T14:56:47.881Z,3.13
2023-01-09T14:59:16.342Z,5.03
2023-01-09T15:01:46.775Z,3.67
2023-01-09T15:04:34.932Z,3.73
2023-01-09T15:07:04.971Z,5.53
2023-01-09T15:09:39.191Z,4.73
2023-01-09T15:12:10.538Z,2.97
2023-01-09T15:14:40.502Z,3.20
2023-01-09T15:17:17.712Z,4.07
2023-01-09T15:19:47.279Z,6.90
2023-01-09T15:22:24.085Z,3.67
2023-01-09T15:24:51.831Z,6.00
2023-01-09T15:27:21.999Z,4.07
2023-01-09T15:29:49.767Z,3.97
2023-01-09T15:32:21.979Z,2.53
2023-01-09T15:34:51.176Z,5.33
2023-01-09T15:37:27.428Z,4.67
2023-01-09T15:39:55.727Z,5.00
2023-01-09T15:42:44.028Z,2.03
2023-01-09T15:45:22.961Z,6.57
2023-01-09T15:47:50.695Z,3.30
2023-01-09T15:50:25.132Z,3.00
2023-01-09T15:52:53.821Z,3.03
2023-01-09T15:55:28.484Z,2.53
2023-01-09T15:57:57.133Z,3.43
2023-01-09T16:00:39.431Z,3.97
2023-01-09T16:03:22.575Z,3.20
2023-01-09T16:06:02.569Z,1.87
2023-01-09T16:08:33.789Z,3.10
2023-01-09T16:11:05.029Z,4.07
2023-01-09T16:13:35.949Z,2.93
2023-01-09T16:16:04.266Z,1.90
2023-01-09T16:18:34.583Z,4.33
2023-01-09T16:21:06.119Z,4.67
2023-01-09T16:23:35.848Z,2.90
2023-01-09T16:26:07.960Z,4.83
2023-01-09T16:28:35.887Z,4.57
2023-01-09T16:31:08.131Z,2.03
2023-01-09T16:33:36.308Z,2.07
2023-01-09T16:36:06.283Z,2.53
2023-01-09T16:38:34.573Z,3.33
2023-01-09T16:41:18.245Z,2.33
2023-01-09T16:43:46.280Z,2.57
2023-01-09T16:46:15.439Z,2.33
2023-01-09T16:48:43.660Z,3.67
2023-01-09T16:51:17.301Z,6.03
2023-01-09T16:53:45.854Z,3.40
2023-01-09T16:56:17.725Z,3.10
2023-01-09T16:58:46.326Z,4.03
2023-01-09T17:01:15.052Z,3.40
2023-01-09T17:03:44.201Z,5.53
2023-01-09T17:06:19.019Z,3.53
2023-01-09T17:08:46.968Z,3.03
2023-01-09T17:11:21.109Z,8.70
2023-01-09T17:13:49.100Z,10.37
2023-01-09T17:16:19.512Z,3.00
2023-01-09T17:18:47.383Z,4.63
2023-01-09T17:21:21.470Z,6.43
2023-01-09T17:24:09.737Z,4.03
2023-01-09T17:26:56.549Z,4.93
2023-01-09T17:29:24.518Z,2.73
2023-01-09T17:31:52.357Z,2.70
2023-01-09T17:34:20.177Z,2.10
2023-01-09T17:36:49.302Z,3.33
2023-01-09T17:39:18.330Z,4.10
2023-01-09T17:41:46.081Z,2.63
2023-01-09T17:44:13.884Z,2.80
2023-01-09T17:46:44.152Z,1.83
2023-01-09T17:49:17.006Z,2.90
2023-01-09T17:51:44.813Z,5.73
2023-01-09T17:54:14.384Z,3.57
2023-01-09T17:56:45.838Z,2.47
2023-01-09T17:59:14.372Z,2.10
2023-01-09T18:01:43.085Z,2.90
2023-01-09T18:04:11.180Z,2.83
2023-01-09T18:06:39.047Z,3.37
2023-01-09T18:09:07.863Z,3.30
2023-01-09T18:11:36.905Z,3.00
2023-01-09T18:14:04.680Z,3.30
2023-01-09T18:16:32.501Z,5.53
2023-01-09T18:19:01.794Z,4.00
2023-01-09T18:21:30.783Z,2.27
2023-01-09T18:24:00.580Z,2.00
2023-01-09T18:26:28.549Z,2.50
2023-01-09T18:28:59.466Z,4.20
2023-01-09T18:31:28.578Z,4.37
2023-01-09T18:33:58.240Z,3.97
2023-01-09T18:36:29.804Z,2.90
2023-01-09T18:38:59.005Z,3.57
2023-01-09T18:41:27.603Z,2.67
2023-01-09T18:43:58.857Z,1.63
2023-01-09T18:46:32.052Z,2.00
2023-01-09T18:49:01.529Z,1.83
2023-01-09T18:51:30.160Z,2.30
2023-01-09T18:53:58.692Z,1.77
2023-01-09T18:56:27.138Z,4.47
2023-01-09T18:58:57.748Z,2.53
2023-01-09T19:01:26.610Z,1.47
2023-01-09T19:03:54.762Z,1.50
2023-01-09T19:06:22.797Z,1.60
2023-01-09T19:08:50.718Z,2.10
2023-01-09T19:11:19.181Z,2.20
2023-01-09T19:13:47.011Z,1.90
2023-01-09T19:16:16.209Z,1.63
2023-01-09T19:18:44.634Z,2.47
2023-01-09T19:21:14.993Z,4.00
2023-01-09T19:23:44.305Z,3.30
2023-01-09T19:26:18.039Z,2.33
2023-01-09T19:28:46.707Z,2.53
2023-01-09T19:31:16.061Z,3.03
2023-01-09T19:33:43.968Z,3.50
2023-01-09T19:36:12.592Z,2.77
2023-01-09T19:38:41.033Z,1.90
2023-01-09T19:41:13.104Z,2.27
2023-01-09T19:43:41.030Z,3.53
2023-01-09T19:46:10.483Z,2.07
2023-01-09T19:48:39.758Z,2.40
2023-01-09T19:51:08.922Z,2.13
2023-01-09T19:53:37.034Z,1.70
2023-01-09T19:56:12.924Z,1.87
2023-01-09T19:58:41.358Z,1.83
2023-01-09T20:01:11.916Z,2.00
2023-01-09T20:03:42.689Z,2.60
2023-01-09T20:06:14.373Z,2.20
2023-01-09T20:08:42.848Z,2.13
2023-01-09T20:11:10.879Z,1.50
2023-01-09T20:13:40.101Z,2.37
2023-01-09T20:16:09.544Z,3.63
2023-01-09T20:18:37.374Z,2.27
2023-01-09T20:21:06.894Z,2.83
2023-01-09T20:23:36.055Z,5.57
2023-01-09T20:26:03.954Z,3.33
2023-01-09T20:28:31.939Z,3.47
2023-01-09T20:30:59.750Z,2.57
2023-01-09T20:33:27.731Z,2.83
2023-01-09T20:35:55.494Z,2.70
2023-01-09T20:38:25.430Z,1.60
2023-01-09T20:40:53.302Z,1.70
2023-01-09T20:43:21.172Z,3.00
2023-01-09T20:45:49.049Z,2.00
2023-01-09T20:48:17.096Z,3.87
2023-01-09T20:50:44.873Z,4.00
2023-01-09T20:53:12.717Z,2.80
2023-01-09T20:55:41.825Z,2.87
2023-01-09T20:58:09.714Z,4.37
2023-01-09T21:00:37.554Z,2.20
2023-01-09T21:03:05.871Z,5.00
2023-01-09T21:05:33.940Z,3.67
2023-01-09T21:08:03.348Z,3.63
2023-01-09T21:10:31.162Z,5.73
2023-01-09T21:13:00.268Z,2.53
2023-01-09T21:15:28.222Z,4.07
2023-01-09T21:17:56.197Z,8.57
2023-01-09T21:20:24.110Z,3.80
2023-01-09T21:22:52.262Z,5.17
2023-01-09T21:25:20.135Z,6.17
2023-01-09T21:27:49.801Z,5.97
2023-01-09T21:30:19.000Z,4.40
2023-01-09T21:32:46.966Z,2.53
2023-01-09T21:35:14.830Z,4.07
2023-01-09T21:37:42.820Z,3.13
2023-01-09T21:40:14.596Z,3.17
2023-01-09T21:43:00.164Z,4.77
2023-01-09T21:45:47.007Z,6.07
2023-01-09T21:48:15.033Z,2.80
2023-01-09T21:50:42.872Z,4.13
2023-01-09T21:53:10.791Z,3.80
2023-01-09T21:55:38.557Z,2.30
2023-01-09T21:58:06.509Z,3.10
2023-01-09T22:00:35.840Z,4.40
2023-01-09T22:03:05.851Z,3.30
2023-01-09T22:05:36.640Z,3.83
2023-01-09T22:08:04.475Z,3.67
2023-01-09T22:10:32.298Z,3.50
2023-01-09T22:13:17.138Z,4.93
2023-01-09T22:15:47.491Z,7.90
2023-01-09T22:18:15.297Z,3.70
2023-01-09T22:20:43.003Z,3.30
2023-01-09T22:23:10.806Z,4.07
2023-01-09T22:25:38.835Z,4.07
2023-01-09T22:28:10.005Z,3.17
2023-01-09T22:30:40.239Z,2.77
2023-01-09T22:33:11.146Z,3.10
2023-01-09T22:35:39.533Z,3.30
2023-01-09T22:38:07.284Z,3.03
2023-01-09T22:40:35.262Z,3.43
2023-01-09T22:43:02.982Z,2.67
2023-01-09T22:45:31.058Z,5.60
2023-01-09T22:47:58.914Z,5.43
2023-01-09T22:50:28.022Z,4.63
2023-01-09T22:52:55.745Z,4.17
2023-01-09T22:55:23.458Z,4.33
2023-01-09T22:57:51.375Z,2.93
2023-01-09T23:00:19.759Z,2.70
2023-01-09T23:02:48.458Z,2.70
2023-01-09T23:05:16.433Z,3.33
2023-01-09T23:07:45.475Z,3.60
2023-01-09T23:10:13.409Z,3.33
2023-01-09T23:12:46.635Z,4.17
2023-01-09T23:15:14.487Z,2.93
2023-01-09T23:17:42.249Z,4.70
2023-01-09T23:20:11.447Z,3.93
2023-01-09T23:22:39.247Z,3.17
2023-01-09T23:25:09.424Z,2.53
2023-01-09T23:27:37.153Z,2.73
2023-01-09T23:30:05.570Z,4.37
2023-01-09T23:32:33.324Z,5.93
2023-01-09T23:35:01.046Z,6.83
2023-01-09T23:37:28.747Z,4.07
2023-01-09T23:39:56.457Z,6.17
2023-01-09T23:42:45.348Z,3.23
2023-01-09T23:45:13.178Z,4.93
2023-01-09T23:47:40.982Z,3.43
2023-01-09T23:50:10.030Z,4.43
2023-01-09T23:52:37.740Z,4.63
2023-01-09T23:55:06.280Z,4.13
2023-01-09T23:57:35.324Z,3.70
